createdAt,value
2022-11-27T00:01:24.519Z,101971.97
2022-11-27T00:03:53.808Z,101971.12
2022-11-27T00:06:23.219Z,101977.19
2022-11-27T00:08:51.091Z,101971.09
2022-11-27T00:11:21.397Z,101978.91
2022-11-27T00:13:49.863Z,101979.78
2022-11-27T00:16:18.489Z,101975.41
2022-11-27T00:18:46.655Z,101976.28
2022-11-27T00:21:16.439Z,101987.56
2022-11-27T00:23:44.365Z,101978.00
2022-11-27T00:26:14.420Z,101983.19
2022-11-27T00:28:42.292Z,101982.37
2022-11-27T00:31:16.168Z,101981.50
2022-11-27T00:33:44.485Z,101983.25
2022-11-27T00:36:13.147Z,101978.06
2022-11-27T00:38:40.664Z,101979.78
2022-11-27T00:41:28.749Z,101979.81
2022-11-27T00:43:56.648Z,101985.00
2022-11-27T00:46:28.961Z,101981.53
2022-11-27T00:48:58.346Z,101982.41
2022-11-27T00:51:27.176Z,101978.94
2022-11-27T00:53:55.156Z,101978.06
2022-11-27T00:56:28.303Z,101985.03
2022-11-27T00:58:56.685Z,101985.91
2022-11-27T01:01:30.085Z,101986.75
2022-11-27T01:03:58.735Z,101991.94
2022-11-27T01:06:27.144Z,101984.12
2022-11-27T01:08:54.613Z,101982.41
2022-11-27T01:11:29.146Z,101987.62
2022-11-27T01:13:59.312Z,101973.72
2022-11-27T01:16:28.229Z,101990.22
2022-11-27T01:19:00.086Z,101978.06
2022-11-27T01:21:31.084Z,101971.12
2022-11-27T01:23:59.298Z,101971.97
2022-11-27T01:26:27.431Z,101961.56
2022-11-27T01:28:56.598Z,101970.25
2022-11-27T01:31:27.811Z,101963.31
2022-11-27T01:33:58.684Z,101971.09
2022-11-27T01:36:26.655Z,101964.16
2022-11-27T01:38:54.581Z,101966.75
2022-11-27T01:41:31.118Z,101961.56
2022-11-27T01:44:01.182Z,101961.56
2022-11-27T01:46:32.360Z,101953.75
2022-11-27T01:49:12.031Z,101955.47
2022-11-27T01:51:56.885Z,101958.09
2022-11-27T01:54:27.572Z,101950.28
2022-11-27T01:56:57.072Z,101953.75
2022-11-27T01:59:24.996Z,101949.41
2022-11-27T02:01:52.597Z,101950.25
2022-11-27T02:04:20.389Z,101952.00
2022-11-27T02:06:48.169Z,101959.84
2022-11-27T02:09:15.864Z,101955.47
2022-11-27T02:11:55.867Z,101958.09
2022-11-27T02:14:26.548Z,101957.22
2022-11-27T02:16:56.936Z,101964.16
2022-11-27T02:19:49.149Z,101965.87
2022-11-27T02:22:54.082Z,101958.09
2022-11-27T02:25:32.099Z,101958.09
2022-11-27T02:28:24.055Z,101954.59
2022-11-27T02:31:06.130Z,101958.06
2022-11-27T02:33:35.456Z,101952.00
2022-11-27T02:36:10.139Z,101951.13
2022-11-27T02:39:15.004Z,101950.28
2022-11-27T02:41:49.473Z,101941.56
2022-11-27T02:44:17.952Z,101945.06
2022-11-27T02:46:46.964Z,101945.94
2022-11-27T02:49:17.162Z,101936.38
2022-11-27T02:51:53.617Z,101949.41
2022-11-27T02:54:25.317Z,101930.31
2022-11-27T02:56:54.038Z,101942.47
2022-11-27T02:59:24.265Z,101937.25
2022-11-27T03:01:55.875Z,101934.63
2022-11-27T03:04:28.601Z,101937.25
2022-11-27T03:07:02.378Z,101943.31
2022-11-27T03:09:40.132Z,101944.16
2022-11-27T03:12:09.138Z,101944.16
2022-11-27T03:14:38.588Z,101950.25
2022-11-27T03:17:16.346Z,101946.78
2022-11-27T03:19:58.285Z,101944.16
2022-11-27T03:22:27.962Z,101947.66
2022-11-27T03:24:55.796Z,101938.09
2022-11-27T03:27:31.059Z,101938.13
2022-11-27T03:30:02.401Z,101940.72
2022-11-27T03:32:31.204Z,101935.50
2022-11-27T03:34:59.024Z,101934.63
2022-11-27T03:37:26.913Z,101935.50
2022-11-27T03:39:54.572Z,101932.91
2022-11-27T03:42:30.616Z,101936.38
2022-11-27T03:45:25.785Z,101936.38
2022-11-27T03:48:21.267Z,101934.63
2022-11-27T03:51:10.751Z,101932.91
2022-11-27T03:53:54.150Z,101934.59
2022-11-27T03:56:45.589Z,101936.31
2022-11-27T03:59:36.157Z,101944.12
2022-11-27T04:02:03.733Z,101939.84
2022-11-27T04:04:31.464Z,101945.94
2022-11-27T04:06:58.991Z,101941.56
2022-11-27T04:09:26.520Z,101944.19
2022-11-27T04:11:54.301Z,101950.28
2022-11-27T04:14:21.727Z,101946.78
2022-11-27T04:16:49.246Z,101943.31
2022-11-27T04:19:17.077Z,101950.25
2022-11-27T04:21:44.530Z,101946.78
2022-11-27T04:24:11.983Z,101950.25
2022-11-27T04:26:39.774Z,101958.09
2022-11-27T04:29:07.262Z,101948.53
2022-11-27T04:31:34.834Z,101943.34
2022-11-27T04:34:02.547Z,101950.28
2022-11-27T04:36:32.565Z,101951.13
2022-11-27T04:39:03.902Z,101948.53
2022-11-27T04:41:31.595Z,101938.13
2022-11-27T04:43:59.049Z,101950.28
2022-11-27T04:46:26.903Z,101952.00
2022-11-27T04:48:54.727Z,101950.28
2022-11-27T04:51:22.231Z,101950.28
2022-11-27T04:53:49.985Z,101945.03
2022-11-27T04:56:17.555Z,101941.59
2022-11-27T04:58:44.983Z,101938.13
2022-11-27T05:01:13.162Z,101936.34
2022-11-27T05:03:40.803Z,101934.66
2022-11-27T05:06:08.196Z,101926.81
2022-11-27T05:08:35.907Z,101921.59
2022-11-27T05:11:10.202Z,101941.56
2022-11-27T05:13:37.996Z,101938.97
2022-11-27T05:16:06.237Z,101939.84
2022-11-27T05:18:33.916Z,101937.22
2022-11-27T05:21:04.480Z,101934.63
2022-11-27T05:23:32.532Z,101927.69
2022-11-27T05:26:00.398Z,101938.09
2022-11-27T05:28:28.286Z,101942.44
2022-11-27T05:30:55.839Z,101926.81
2022-11-27T05:33:23.382Z,101941.56
2022-11-27T05:35:51.343Z,101929.44
2022-11-27T05:38:19.190Z,101936.38
2022-11-27T05:40:46.732Z,101941.59
2022-11-27T05:43:14.475Z,101941.59
2022-11-27T05:45:42.298Z,101944.19
2022-11-27T05:48:09.859Z,101930.28
2022-11-27T05:50:37.628Z,101943.31
2022-11-27T05:53:05.304Z,101953.75
2022-11-27T05:55:32.841Z,101948.53
2022-11-27T05:58:00.615Z,101960.66
2022-11-27T06:00:28.193Z,101951.09
2022-11-27T06:02:56.697Z,101937.22
2022-11-27T06:05:24.360Z,101948.50
2022-11-27T06:07:51.985Z,101945.94
2022-11-27T06:10:19.871Z,101942.47
2022-11-27T06:12:47.297Z,101941.56
2022-11-27T06:15:14.887Z,101951.97
2022-11-27T06:17:42.681Z,101964.16
2022-11-27T06:20:11.274Z,101958.06
2022-11-27T06:22:40.483Z,101950.25
2022-11-27T06:25:08.648Z,101952.84
2022-11-27T06:27:36.561Z,101952.88
2022-11-27T06:30:06.141Z,101946.78
2022-11-27T06:32:34.386Z,101951.13
2022-11-27T06:35:01.859Z,101954.63
2022-11-27T06:37:29.489Z,101954.63
2022-11-27T06:39:58.901Z,101950.28
2022-11-27T06:42:30.041Z,101945.91
2022-11-27T06:44:58.144Z,101948.53
2022-11-27T06:47:25.746Z,101956.34
2022-11-27T06:49:53.205Z,101961.56
2022-11-27T06:52:21.161Z,101963.31
2022-11-27T06:54:48.784Z,101958.94
2022-11-27T06:57:16.539Z,101969.37
2022-11-27T06:59:44.460Z,101971.12
2022-11-27T07:02:14.649Z,101963.28
2022-11-27T07:04:42.438Z,101960.69
2022-11-27T07:07:10.586Z,101960.69
2022-11-27T07:09:38.717Z,101965.87
2022-11-27T07:12:06.371Z,101969.37
2022-11-27T07:14:34.214Z,101965.91
2022-11-27T07:17:01.810Z,101963.28
2022-11-27T07:19:29.236Z,101958.97
2022-11-27T07:21:56.929Z,101952.88
2022-11-27T07:24:24.765Z,101966.75
2022-11-27T07:26:52.257Z,101957.22
2022-11-27T07:29:20.038Z,101954.59
2022-11-27T07:31:48.057Z,101957.19
2022-11-27T07:34:21.239Z,101957.19
2022-11-27T07:36:49.549Z,101958.94
2022-11-27T07:39:25.174Z,101964.16
2022-11-27T07:42:16.749Z,101965.03
2022-11-27T07:44:49.288Z,101963.28
2022-11-27T07:47:17.072Z,101970.25
2022-11-27T07:49:46.701Z,101969.37
2022-11-27T07:52:14.246Z,101972.00
2022-11-27T07:54:42.411Z,101978.94
2022-11-27T07:57:10.038Z,101980.66
2022-11-27T07:59:37.678Z,101974.59
2022-11-27T08:02:05.431Z,101972.84
2022-11-27T08:04:33.312Z,101971.12
2022-11-27T08:07:00.959Z,101972.00
2022-11-27T08:09:29.969Z,101966.78
2022-11-27T08:11:57.816Z,101971.12
2022-11-27T08:14:25.269Z,101970.22
2022-11-27T08:16:52.831Z,101965.91
2022-11-27T08:19:20.699Z,101965.91
2022-11-27T08:21:48.150Z,101963.28
2022-11-27T08:24:15.753Z,101957.19
2022-11-27T08:26:43.576Z,101960.66
2022-11-27T08:29:12.066Z,101956.31
2022-11-27T08:31:39.915Z,101965.87
2022-11-27T08:34:07.945Z,101962.41
2022-11-27T08:36:35.459Z,101962.41
2022-11-27T08:39:03.011Z,101964.12
2022-11-27T08:41:30.775Z,101966.75
2022-11-27T08:43:58.636Z,101970.22
2022-11-27T08:46:26.192Z,101971.97
2022-11-27T08:48:54.041Z,101965.87
2022-11-27T08:51:21.506Z,101971.06
2022-11-27T08:53:49.801Z,101973.66
2022-11-27T08:56:23.334Z,101978.87
2022-11-27T08:58:52.637Z,101975.41
2022-11-27T09:01:25.694Z,101978.84
2022-11-27T09:03:53.687Z,101982.34
2022-11-27T09:06:24.451Z,101978.00
2022-11-27T09:08:52.215Z,101983.22
2022-11-27T09:11:20.397Z,101989.31
2022-11-27T09:13:48.700Z,101987.62
2022-11-27T09:16:17.921Z,101982.37
2022-11-27T09:18:47.202Z,101979.75
2022-11-27T09:21:16.418Z,101992.78
2022-11-27T09:23:44.369Z,101991.03
2022-11-27T09:26:14.532Z,101985.81
2022-11-27T09:28:43.983Z,101985.81
2022-11-27T09:31:13.823Z,101974.50
2022-11-27T09:33:42.158Z,101985.81
2022-11-27T09:36:16.587Z,101970.13
2022-11-27T09:38:44.451Z,101986.66
2022-11-27T09:41:12.048Z,101984.91
2022-11-27T09:43:45.968Z,101991.88
2022-11-27T09:46:17.671Z,101978.00
2022-11-27T09:48:48.660Z,101977.12
2022-11-27T09:51:25.895Z,101974.50
2022-11-27T09:54:02.628Z,101977.09
2022-11-27T09:56:30.761Z,101963.22
2022-11-27T09:58:59.781Z,101966.69
2022-11-27T10:01:36.482Z,101961.44
2022-11-27T10:04:15.827Z,101969.28
2022-11-27T10:07:05.530Z,101956.31
2022-11-27T10:09:39.336Z,101952.78
2022-11-27T10:12:42.238Z,101955.41
2022-11-27T10:15:16.335Z,101949.31
2022-11-27T10:17:52.145Z,101952.81
2022-11-27T10:20:29.751Z,101951.87
2022-11-27T10:23:02.159Z,101937.06
2022-11-27T10:25:38.778Z,101937.91
2022-11-27T10:28:18.290Z,101930.97
2022-11-27T10:31:00.863Z,101937.16
2022-11-27T10:33:38.828Z,101931.06
2022-11-27T10:36:14.119Z,101926.69
2022-11-27T10:38:42.061Z,101918.78
2022-11-27T10:41:12.140Z,101923.09
2022-11-27T10:43:48.865Z,101917.03
2022-11-27T10:46:23.141Z,101911.78
2022-11-27T10:48:50.871Z,101916.16
2022-11-27T10:51:21.585Z,101910.06
2022-11-27T10:53:52.744Z,101911.78
2022-11-27T10:56:50.029Z,101913.53
2022-11-27T10:59:27.693Z,101916.16
2022-11-27T11:02:00.998Z,101907.44
2022-11-27T11:04:38.879Z,101907.41
2022-11-27T11:07:24.767Z,101908.25
2022-11-27T11:09:54.358Z,101910.91
2022-11-27T11:12:23.605Z,101907.41
2022-11-27T11:14:56.082Z,101901.28
2022-11-27T11:17:28.540Z,101896.06
2022-11-27T11:19:56.120Z,101899.53
2022-11-27T11:22:24.603Z,101896.91
2022-11-27T11:24:53.451Z,101895.25
2022-11-27T11:27:25.600Z,101899.53
2022-11-27T11:29:55.615Z,101895.19
2022-11-27T11:32:25.793Z,101900.44
2022-11-27T11:35:10.926Z,101896.94
2022-11-27T11:37:40.101Z,101899.53
2022-11-27T11:40:16.216Z,101898.69
2022-11-27T11:42:54.100Z,101903.91
2022-11-27T11:45:22.828Z,101893.47
2022-11-27T11:47:58.668Z,101896.06
2022-11-27T11:50:43.764Z,101896.09
2022-11-27T11:53:45.433Z,101887.44
2022-11-27T11:56:32.348Z,101892.59
2022-11-27T11:59:25.111Z,101890.87
2022-11-27T12:02:02.036Z,101888.22
2022-11-27T12:04:32.577Z,101883.94
2022-11-27T12:07:28.008Z,101873.50
2022-11-27T12:10:05.305Z,101884.75
2022-11-27T12:12:44.218Z,101872.53
2022-11-27T12:15:21.606Z,101869.06
2022-11-27T12:18:01.391Z,101865.59
2022-11-27T12:20:46.566Z,101866.41
2022-11-27T12:23:23.237Z,101856.91
2022-11-27T12:26:00.663Z,101850.84
2022-11-27T12:28:53.234Z,101855.16
2022-11-27T12:31:49.891Z,101860.34
2022-11-27T12:34:43.108Z,101859.59
2022-11-27T12:37:24.206Z,101863.13
2022-11-27T12:40:14.489Z,101854.37
2022-11-27T12:42:57.925Z,101855.16
2022-11-27T12:45:29.675Z,101850.78
2022-11-27T12:48:16.235Z,101849.88
2022-11-27T12:51:16.909Z,101845.53
2022-11-27T12:53:56.262Z,101842.03
2022-11-27T12:56:35.608Z,101842.00
2022-11-27T12:59:28.118Z,101841.97
2022-11-27T13:02:15.820Z,101844.63
2022-11-27T13:04:47.256Z,101838.59
2022-11-27T13:07:23.004Z,101842.91
2022-11-27T13:10:32.922Z,101848.13
2022-11-27T13:13:06.871Z,101842.84
2022-11-27T13:15:48.011Z,101841.09
2022-11-27T13:18:30.986Z,101835.88
2022-11-27T13:21:04.731Z,101837.59
2022-11-27T13:23:33.153Z,101838.41
2022-11-27T13:26:05.148Z,101837.56
2022-11-27T13:28:55.499Z,101842.81
2022-11-27T13:31:25.699Z,101835.03
2022-11-27T13:33:59.090Z,101833.28
2022-11-27T13:36:42.045Z,101837.59
2022-11-27T13:39:24.065Z,101834.13
2022-11-27T13:42:16.749Z,101833.28
2022-11-27T13:44:52.689Z,101836.75
2022-11-27T13:47:22.619Z,101830.72
2022-11-27T13:50:02.494Z,101826.37
2022-11-27T13:52:30.714Z,101827.25
2022-11-27T13:55:00.273Z,101821.19
2022-11-27T13:57:29.024Z,101833.41
2022-11-27T14:00:05.547Z,101825.63
2022-11-27T14:02:46.729Z,101831.72
2022-11-27T14:05:18.107Z,101830.84
2022-11-27T14:07:50.921Z,101826.50
2022-11-27T14:10:21.799Z,101830.84
2022-11-27T14:13:01.749Z,101833.47
2022-11-27T14:15:31.183Z,101823.91
2022-11-27T14:18:19.890Z,101820.44
2022-11-27T14:20:58.487Z,101812.66
2022-11-27T14:23:28.364Z,101827.44
2022-11-27T14:26:15.228Z,101824.81
2022-11-27T14:28:46.236Z,101830.94
2022-11-27T14:31:30.736Z,101816.16
2022-11-27T14:34:14.732Z,101826.59
2022-11-27T14:36:44.178Z,101823.97
2022-11-27T14:39:22.286Z,101822.25
2022-11-27T14:41:59.892Z,101817.06
2022-11-27T14:44:27.949Z,101827.50
2022-11-27T14:46:57.568Z,101830.09
2022-11-27T14:49:27.081Z,101830.13
2022-11-27T14:51:58.168Z,101827.50
2022-11-27T14:54:29.942Z,101819.66
2022-11-27T14:56:59.029Z,101813.63
2022-11-27T14:59:26.858Z,101816.22
2022-11-27T15:02:15.935Z,101819.66
2022-11-27T15:04:45.008Z,101824.03
2022-11-27T15:07:18.016Z,101813.59
2022-11-27T15:09:54.422Z,101819.66
2022-11-27T15:12:30.220Z,101817.91
2022-11-27T15:15:14.214Z,101821.41
2022-11-27T15:17:45.582Z,101826.69
2022-11-27T15:20:25.891Z,101824.16
2022-11-27T15:22:55.689Z,101826.66
2022-11-27T15:25:40.044Z,101824.06
2022-11-27T15:28:37.796Z,101820.56
2022-11-27T15:31:24.876Z,101816.25
2022-11-27T15:34:18.457Z,101807.56
2022-11-27T15:36:52.150Z,101818.84
2022-11-27T15:39:45.883Z,101828.41
2022-11-27T15:42:14.817Z,101823.19
2022-11-27T15:44:42.674Z,101807.56
2022-11-27T15:47:23.465Z,101824.91
2022-11-27T15:49:52.187Z,101827.50
2022-11-27T15:52:19.898Z,101827.53
2022-11-27T15:54:47.544Z,101821.44
2022-11-27T15:57:15.212Z,101827.53
2022-11-27T15:59:43.858Z,101828.41
2022-11-27T16:02:17.460Z,101821.47
2022-11-27T16:04:46.190Z,101820.59
2022-11-27T16:07:13.727Z,101819.72
2022-11-27T16:09:41.890Z,101821.47
2022-11-27T16:12:09.825Z,101816.28
2022-11-27T16:14:37.458Z,101811.12
2022-11-27T16:17:05.102Z,101814.62
2022-11-27T16:19:32.865Z,101812.03
2022-11-27T16:22:01.199Z,101812.87
2022-11-27T16:24:28.729Z,101799.84
2022-11-27T16:26:56.535Z,101799.03
2022-11-27T16:29:23.974Z,101805.97
2022-11-27T16:31:51.849Z,101810.34
2022-11-27T16:34:19.861Z,101814.69
2022-11-27T16:36:48.402Z,101809.47
2022-11-27T16:39:17.144Z,101806.87
2022-11-27T16:41:45.362Z,101818.16
2022-11-27T16:44:15.071Z,101809.44
2022-11-27T16:46:44.581Z,101813.78
2022-11-27T16:49:13.355Z,101812.03
2022-11-27T16:51:41.813Z,101816.34
2022-11-27T16:54:11.942Z,101812.87
2022-11-27T16:56:40.945Z,101802.44
2022-11-27T16:59:10.397Z,101805.03
2022-11-27T17:01:41.175Z,101807.63
2022-11-27T17:04:16.788Z,101798.97
2022-11-27T17:06:45.086Z,101796.37
2022-11-27T17:09:13.375Z,101800.72
2022-11-27T17:11:43.927Z,101797.22
2022-11-27T17:14:12.026Z,101798.09
2022-11-27T17:16:41.666Z,101793.75
2022-11-27T17:19:13.891Z,101782.53
2022-11-27T17:21:42.118Z,101780.81
2022-11-27T17:24:16.471Z,101800.78
2022-11-27T17:26:45.340Z,101790.38
2022-11-27T17:29:15.415Z,101797.31
2022-11-27T17:31:44.278Z,101799.03
2022-11-27T17:34:14.759Z,101793.81
2022-11-27T17:36:44.693Z,101792.97
2022-11-27T17:39:15.305Z,101789.44
2022-11-27T17:41:46.839Z,101792.97
2022-11-27T17:44:14.848Z,101789.50
2022-11-27T17:46:45.038Z,101781.75
2022-11-27T17:49:13.047Z,101785.25
2022-11-27T17:51:41.484Z,101778.31
2022-11-27T17:54:11.109Z,101775.72
2022-11-27T17:56:39.417Z,101768.75
2022-11-27T17:59:09.699Z,101770.53
2022-11-27T18:01:37.872Z,101771.38
2022-11-27T18:04:06.319Z,101776.56
2022-11-27T18:06:36.073Z,101768.75
2022-11-27T18:09:04.705Z,101772.25
2022-11-27T18:11:34.061Z,101771.34
2022-11-27T18:14:01.912Z,101774.78
2022-11-27T18:16:33.045Z,101762.63
2022-11-27T18:19:07.271Z,101771.31
2022-11-27T18:21:35.631Z,101773.91
2022-11-27T18:27:10.558Z,101770.50
2022-11-27T18:29:42.053Z,101769.63
2022-11-27T18:32:11.313Z,101772.22
2022-11-27T18:34:39.874Z,101755.72
2022-11-27T18:37:07.737Z,101766.13
2022-11-27T18:39:36.142Z,101765.25
2022-11-27T18:42:05.163Z,101770.44
2022-11-27T18:44:37.347Z,101781.69
2022-11-27T18:47:11.463Z,101764.31
2022-11-27T18:49:40.744Z,101766.91
2022-11-27T18:52:09.310Z,101763.44
2022-11-27T18:54:37.589Z,101752.97
2022-11-27T18:57:07.117Z,101753.88
2022-11-27T18:59:35.411Z,101757.34
2022-11-27T19:02:04.493Z,101763.50
2022-11-27T19:04:35.886Z,101758.25
2022-11-27T19:07:04.016Z,101753.91
2022-11-27T19:09:31.625Z,101750.41
2022-11-27T19:11:59.363Z,101753.88
2022-11-27T19:14:27.817Z,101757.38
2022-11-27T19:16:56.468Z,101746.13
2022-11-27T19:20:04.462Z,101748.75
2022-11-27T19:22:14.302Z,101751.34
2022-11-27T19:24:42.392Z,101753.06
2022-11-27T19:27:10.638Z,101748.69
2022-11-27T19:29:38.774Z,101746.94
2022-11-27T19:32:06.708Z,101752.13
2022-11-27T19:34:34.884Z,101747.78
2022-11-27T19:37:03.013Z,101746.94
2022-11-27T19:39:30.788Z,101745.22
2022-11-27T19:41:59.192Z,101747.00
2022-11-27T19:44:27.278Z,101744.41
2022-11-27T19:46:54.945Z,101734.91
2022-11-27T19:49:23.899Z,101742.69
2022-11-27T19:51:52.098Z,101748.75
2022-11-27T19:54:21.811Z,101753.97
2022-11-27T19:56:51.551Z,101744.41
2022-11-27T19:59:24.416Z,101734.84
2022-11-27T20:01:54.149Z,101744.38
2022-11-27T20:04:26.303Z,101736.56
2022-11-27T20:06:54.164Z,101737.41
2022-11-27T20:09:22.349Z,101742.63
2022-11-27T20:11:49.936Z,101730.44
2022-11-27T20:14:19.493Z,101733.03
2022-11-27T20:16:47.969Z,101735.66
2022-11-27T20:19:16.104Z,101733.06
2022-11-27T20:21:45.562Z,101735.66
2022-11-27T20:24:15.122Z,101733.94
2022-11-27T20:26:43.452Z,101737.41
2022-11-27T20:29:16.448Z,101732.22
2022-11-27T20:31:45.304Z,101733.97
2022-11-27T20:34:21.865Z,101728.78
2022-11-27T20:36:50.271Z,101724.47
2022-11-27T20:39:21.672Z,101719.31
2022-11-27T20:41:51.886Z,101719.34
2022-11-27T20:44:20.355Z,101720.22
2022-11-27T20:46:49.073Z,101712.41
2022-11-27T20:49:18.189Z,101704.59
2022-11-27T20:51:49.003Z,101707.22
2022-11-27T20:54:19.067Z,101708.97
2022-11-27T20:56:50.244Z,101712.44
2022-11-27T20:59:19.228Z,101702.88
2022-11-27T21:01:47.295Z,101702.88
2022-11-27T21:04:22.363Z,101708.09
2022-11-27T21:06:50.938Z,101713.28
2022-11-27T21:09:20.710Z,101701.13
2022-11-27T21:11:48.752Z,101712.44
2022-11-27T21:14:17.178Z,101709.81
2022-11-27T21:16:48.589Z,101708.09
2022-11-27T21:19:20.085Z,101715.06
2022-11-27T21:21:48.568Z,101702.91
2022-11-27T21:24:16.348Z,101707.25
2022-11-27T21:26:45.064Z,101703.75
2022-11-27T21:29:14.977Z,101702.00
2022-11-27T21:31:46.781Z,101703.75
2022-11-27T21:34:16.012Z,101699.41
2022-11-27T21:36:44.491Z,101708.09
2022-11-27T21:39:13.967Z,101704.63
2022-11-27T21:41:41.804Z,101706.34
2022-11-27T21:44:09.935Z,101700.28
2022-11-27T21:46:38.352Z,101710.69
2022-11-27T21:49:06.320Z,101703.75
2022-11-27T21:51:33.825Z,101704.66
2022-11-27T21:54:06.545Z,101709.00
2022-11-27T21:56:37.654Z,101705.53
2022-11-27T21:59:05.902Z,101701.19
2022-11-27T22:01:34.097Z,101699.44
2022-11-27T22:04:02.705Z,101695.97
2022-11-27T22:06:35.032Z,101692.53
2022-11-27T22:09:03.682Z,101695.97
2022-11-27T22:11:31.419Z,101691.63
2022-11-27T22:14:07.347Z,101689.88
2022-11-27T22:16:44.149Z,101692.50
2022-11-27T22:19:14.337Z,101694.22
2022-11-27T22:21:43.475Z,101679.50
2022-11-27T22:24:15.046Z,101686.41
2022-11-27T22:26:47.760Z,101687.31
2022-11-27T22:29:15.247Z,101686.44
2022-11-27T22:31:42.909Z,101685.56
2022-11-27T22:34:10.824Z,101689.91
2022-11-27T22:36:38.785Z,101687.31
2022-11-27T22:39:07.585Z,101682.94
2022-11-27T22:41:36.935Z,101688.19
2022-11-27T22:44:06.257Z,101682.94
2022-11-27T22:46:35.681Z,101682.97
2022-11-27T22:49:05.864Z,101685.59
2022-11-27T22:51:35.780Z,101692.50
2022-11-27T22:54:04.901Z,101685.56
2022-11-27T22:56:33.905Z,101689.03
2022-11-27T22:59:30.416Z,101682.09
2022-11-27T23:01:50.117Z,101677.75
2022-11-27T23:04:17.808Z,101676.88
2022-11-27T23:06:48.269Z,101674.28
2022-11-27T23:09:18.200Z,101684.69
2022-11-27T23:11:46.124Z,101672.53
2022-11-27T23:14:13.547Z,101668.22
2022-11-27T23:16:41.485Z,101672.56
2022-11-27T23:19:10.046Z,101673.44
2022-11-27T23:21:39.086Z,101672.53
2022-11-27T23:24:09.666Z,101669.94
2022-11-27T23:26:37.288Z,101673.41
2022-11-27T23:29:05.112Z,101658.69
2022-11-27T23:31:35.379Z,101657.81
2022-11-27T23:34:07.595Z,101669.09
2022-11-27T23:36:36.357Z,101659.56
2022-11-27T23:39:06.565Z,101663.87
2022-11-27T23:41:34.135Z,101656.94
2022-11-27T23:44:02.322Z,101648.28
2022-11-27T23:46:30.918Z,101648.25
2022-11-27T23:48:59.797Z,101640.44
2022-11-27T23:51:30.184Z,101643.91
2022-11-27T23:53:58.260Z,101649.97
2022-11-27T23:56:28.702Z,101647.37
2022-11-27T23:58:57.451Z,101645.62
